Time,TemperatureF,DewpointF,PressureIn,WindDirection,WindDirectionDegrees,WindSpeedMPH,WindSpeedGustMPH,Humidity,HourlyPrecipIn,Conditions,Clouds,dailyrainin,SolarRadiationWatts/m^2,SoftwareType,DateUTC
2013-08-23 00:03:00,79.0,75.0,-100.00,WSW,256,1.0,5.0,87,0.00,,,-99.99,0.000000,,2013-08-23 05:03:00,
2013-08-23 00:42:00,77.0,74.0,-100.00,NNW,344,3.0,4.0,90,0.00,,,0.00,0.000000,,2013-08-23 05:42:00,
2013-08-23 00:52:00,77.0,74.0,-100.00,NNW,344,3.0,4.0,90,0.00,,,0.00,0.000000,,2013-08-23 05:52:00,
2013-08-23 01:02:00,77.0,74.0,-100.00,NNW,344,3.0,4.0,90,0.00,,,0.00,0.000000,,2013-08-23 06:02:00,
2013-08-23 01:42:00,76.0,74.0,-100.00,WNW,291,0.0,2.0,93,0.00,,,0.00,0.000000,,2013-08-23 06:42:00,
2013-08-23 01:52:00,76.0,74.0,-100.00,WNW,291,0.0,2.0,93,0.00,,,0.00,0.000000,,2013-08-23 06:52:00,
2013-08-23 02:01:00,76.0,74.0,-100.00,WNW,291,0.0,2.0,93,0.00,,,0.00,0.000000,,2013-08-23 07:01:00,
2013-08-23 02:42:00,75.0,73.0,-100.00,NNE,16,2.0,4.0,94,0.00,,,0.00,0.000000,,2013-08-23 07:42:00,
2013-08-23 02:52:00,75.0,73.0,-100.00,NNE,16,2.0,4.0,94,0.00,,,0.00,0.000000,,2013-08-23 07:52:00,
2013-08-23 03:02:00,75.0,73.0,-100.00,NNE,16,2.0,4.0,94,0.00,,,0.00,0.000000,,2013-08-23 08:02:00,
2013-08-23 03:42:00,74.0,72.0,-100.00,NW,324,1.0,3.0,95,0.00,,,0.00,0.000000,,2013-08-23 08:42:00,
2013-08-23 03:52:00,74.0,72.0,-100.00,NW,324,1.0,3.0,95,0.00,,,0.00,0.000000,,2013-08-23 08:52:00,
2013-08-23 04:01:00,74.0,72.0,-100.00,NW,324,1.0,3.0,95,0.00,,,0.00,0.000000,,2013-08-23 09:01:00,
2013-08-23 04:43:00,74.0,72.0,-100.00,NNW,332,2.0,4.0,95,0.00,,,0.00,0.000000,,2013-08-23 09:43:00,
2013-08-23 04:53:00,74.0,72.0,-100.00,NNW,332,2.0,4.0,95,0.00,,,0.00,0.000000,,2013-08-23 09:53:00,
2013-08-23 05:03:00,74.0,72.0,-100.00,NNW,332,2.0,4.0,95,0.00,,,0.00,0.000000,,2013-08-23 10:03:00,
2013-08-23 05:42:00,73.0,71.0,-100.00,NNE,24,2.0,5.0,95,0.00,,,-99.99,0.000000,,2013-08-23 10:42:00,
2013-08-23 05:53:00,73.0,71.0,-100.00,NNE,24,2.0,5.0,95,0.00,,,-99.99,0.000000,,2013-08-23 10:53:00,
2013-08-23 06:02:00,73.0,71.0,-100.00,NNE,24,2.0,5.0,95,0.00,,,-99.99,0.000000,,2013-08-23 11:02:00,
2013-08-23 06:42:00,73.0,72.0,-100.00,NE,56,1.0,5.0,96,0.00,,,0.00,0.000000,,2013-08-23 11:42:00,
2013-08-23 06:53:00,73.0,72.0,-100.00,NE,56,1.0,5.0,96,0.00,,,0.00,0.000000,,2013-08-23 11:53:00,
2013-08-23 07:01:00,73.0,72.0,-100.00,NE,56,1.0,5.0,96,0.00,,,0.00,0.000000,,2013-08-23 12:01:00,
2013-08-23 07:42:00,72.0,71.0,-100.00,NNE,22,4.0,6.0,96,0.00,,,0.00,2.000000,,2013-08-23 12:42:00,
2013-08-23 07:52:00,72.0,71.0,-100.00,NNE,22,4.0,6.0,96,0.00,,,0.00,2.000000,,2013-08-23 12:52:00,
2013-08-23 08:02:00,72.0,71.0,-100.00,NNE,22,4.0,6.0,96,0.00,,,0.00,2.000000,,2013-08-23 13:02:00,
2013-08-23 08:42:00,74.0,73.0,-100.00,NNE,29,4.0,7.0,96,0.00,,,0.00,20.000000,,2013-08-23 13:42:00,
2013-08-23 08:53:00,74.0,73.0,-100.00,NNE,29,4.0,7.0,96,0.00,,,0.00,20.000000,,2013-08-23 13:53:00,
2013-08-23 09:02:00,74.0,73.0,-100.00,NNE,29,4.0,7.0,96,0.00,,,0.00,20.000000,,2013-08-23 14:02:00,
2013-08-23 09:42:00,79.0,77.0,-100.00,NNE,23,5.0,8.0,94,0.00,,,0.00,37.000000,,2013-08-23 14:42:00,
2013-08-23 09:52:00,79.0,77.0,-100.00,NNE,23,5.0,8.0,94,0.00,,,0.00,37.000000,,2013-08-23 14:52:00,
2013-08-23 10:01:00,79.0,77.0,-100.00,NNE,23,5.0,8.0,94,0.00,,,0.00,37.000000,,2013-08-23 15:01:00,
2013-08-23 10:05:00,87.0,78.0,-100.00,NNE,17,3.0,9.0,74,0.00,,,0.00,248.000000,,2013-08-23 15:05:00,
2013-08-23 10:44:00,87.0,78.0,-100.00,NNE,17,3.0,9.0,74,0.00,,,0.00,248.000000,,2013-08-23 15:44:00,
2013-08-23 10:54:00,87.0,78.0,-100.00,NNE,17,3.0,9.0,74,0.00,,,0.00,248.000000,,2013-08-23 15:54:00,
2013-08-23 11:42:00,90.0,73.0,-100.00,NE,38,5.0,10.0,58,0.00,,,0.00,579.000000,,2013-08-23 16:42:00,
2013-08-23 11:53:00,90.0,73.0,-100.00,NE,38,5.0,10.0,58,0.00,,,0.00,579.000000,,2013-08-23 16:53:00,
2013-08-23 12:04:00,90.0,73.0,-100.00,NE,38,5.0,10.0,58,0.00,,,0.00,579.000000,,2013-08-23 17:04:00,
2013-08-23 12:43:00,93.0,76.0,-100.00,ENE,58,5.0,12.0,58,0.00,,,0.00,520.000000,,2013-08-23 17:43:00,
2013-08-23 12:53:00,93.0,76.0,-100.00,ENE,58,5.0,12.0,58,0.00,,,0.00,520.000000,,2013-08-23 17:53:00,
2013-08-23 13:02:00,93.0,76.0,-100.00,ENE,58,5.0,12.0,58,0.00,,,0.00,520.000000,,2013-08-23 18:02:00,
2013-08-23 13:42:00,93.0,68.0,-100.00,NE,40,5.0,11.0,44,0.00,,,0.00,553.000000,,2013-08-23 18:42:00,
2013-08-23 13:52:00,93.0,68.0,-100.00,NE,40,5.0,11.0,44,0.00,,,0.00,553.000000,,2013-08-23 18:52:00,
2013-08-23 14:01:00,93.0,68.0,-100.00,NE,40,5.0,11.0,44,0.00,,,0.00,553.000000,,2013-08-23 19:01:00,
2013-08-23 14:42:00,95.0,70.0,-100.00,NNE,20,5.0,13.0,44,0.00,,,0.00,504.000000,,2013-08-23 19:42:00,
2013-08-23 14:52:00,95.0,70.0,-100.00,NNE,20,5.0,13.0,44,0.00,,,0.00,504.000000,,2013-08-23 19:52:00,
2013-08-23 15:02:00,95.0,70.0,-100.00,NNE,20,5.0,13.0,44,0.00,,,0.00,504.000000,,2013-08-23 20:02:00,
2013-08-23 15:42:00,98.0,77.0,-100.00,East,100,6.0,14.0,51,0.00,,,0.00,483.000000,,2013-08-23 20:42:00,
2013-08-23 15:52:00,98.0,77.0,-100.00,East,100,6.0,14.0,51,0.00,,,0.00,483.000000,,2013-08-23 20:52:00,
2013-08-23 16:02:00,98.0,77.0,-100.00,East,100,6.0,14.0,51,0.00,,,0.00,483.000000,,2013-08-23 21:02:00,
2013-08-23 16:44:00,98.0,71.0,-100.00,East,86,6.0,13.0,42,0.00,,,0.00,490.000000,,2013-08-23 21:44:00,
2013-08-23 17:43:00,95.0,70.0,-100.00,NE,46,4.0,14.0,44,-99.99,,,0.00,395.000000,,2013-08-23 22:43:00,
2013-08-23 17:53:00,95.0,70.0,-100.00,NE,46,4.0,14.0,44,-99.99,,,0.00,395.000000,,2013-08-23 22:53:00,
2013-08-23 18:03:00,95.0,70.0,-100.00,NE,46,4.0,14.0,44,-99.99,,,0.00,395.000000,,2013-08-23 23:03:00,
2013-08-23 18:43:00,94.0,74.0,-100.00,ESE,114,5.0,12.0,52,0.00,,,0.00,192.000000,,2013-08-23 23:43:00,
2013-08-23 18:54:00,94.0,74.0,-100.00,ESE,114,5.0,12.0,52,0.00,,,0.00,192.000000,,2013-08-23 23:54:00,
2013-08-23 19:02:00,94.0,74.0,-100.00,ESE,114,5.0,12.0,52,0.00,,,0.00,192.000000,,2013-08-24 00:02:00,
2013-08-23 19:43:00,89.0,69.0,-100.00,SSE,152,4.0,15.0,52,0.00,,,0.00,84.000000,,2013-08-24 00:43:00,
2013-08-23 19:53:00,89.0,69.0,-100.00,SSE,152,4.0,15.0,52,0.00,,,0.00,84.000000,,2013-08-24 00:53:00,
2013-08-23 20:02:00,89.0,69.0,-100.00,SSE,152,4.0,15.0,52,0.00,,,0.00,84.000000,,2013-08-24 01:02:00,
2013-08-23 20:42:00,83.0,70.0,-100.00,SE,144,3.0,5.0,64,0.00,,,0.00,11.000000,,2013-08-24 01:42:00,
2013-08-23 20:53:00,83.0,70.0,-100.00,SE,144,3.0,5.0,64,0.00,,,0.00,11.000000,,2013-08-24 01:53:00,
2013-08-23 21:02:00,83.0,70.0,-100.00,SE,144,3.0,5.0,64,0.00,,,0.00,11.000000,,2013-08-24 02:02:00,
2013-08-23 21:42:00,81.0,71.0,-100.00,ENE,77,1.0,4.0,71,0.00,,,0.00,0.000000,,2013-08-24 02:42:00,
2013-08-23 21:52:00,81.0,71.0,-100.00,ENE,77,1.0,4.0,71,0.00,,,0.00,0.000000,,2013-08-24 02:52:00,
2013-08-23 22:02:00,81.0,71.0,-100.00,ENE,77,1.0,4.0,71,0.00,,,0.00,0.000000,,2013-08-24 03:02:00,
2013-08-23 22:44:00,79.0,71.0,-100.00,ESE,103,3.0,6.0,76,0.00,,,0.00,0.000000,,2013-08-24 03:44:00,
2013-08-23 22:55:00,79.0,71.0,-100.00,ESE,103,3.0,6.0,76,0.00,,,0.00,0.000000,,2013-08-24 03:55:00,
2013-08-23 23:04:00,79.0,71.0,-100.00,ESE,103,3.0,6.0,76,0.00,,,0.00,0.000000,,2013-08-24 04:04:00,
2013-08-23 23:44:00,79.0,73.0,-100.00,East,101,4.0,7.0,81,0.00,,,0.00,0.000000,,2013-08-24 04:44:00,
2013-08-23 23:54:00,79.0,73.0,-100.00,East,101,4.0,7.0,81,0.00,,,0.00,0.000000,,2013-08-24 04:54:00,